createdAt,value
2023-02-06T00:01:04.380Z,1.38
2023-02-06T00:03:49.807Z,1.34
2023-02-06T00:06:35.171Z,1.37
2023-02-06T00:09:20.532Z,1.35
2023-02-06T00:12:05.524Z,1.36
2023-02-06T00:14:50.662Z,1.39
2023-02-06T00:17:36.686Z,1.43
2023-02-06T00:20:22.353Z,1.37
2023-02-06T00:23:07.672Z,1.59
2023-02-06T00:25:52.911Z,1.60
2023-02-06T00:28:38.353Z,1.48
2023-02-06T00:31:23.861Z,1.35
2023-02-06T00:34:08.997Z,1.41
2023-02-06T00:36:53.903Z,1.35
2023-02-06T00:39:38.732Z,1.33
2023-02-06T00:42:23.724Z,1.16
2023-02-06T00:45:09.710Z,1.11
2023-02-06T00:47:54.875Z,1.15
2023-02-06T00:50:40.176Z,1.16
2023-02-06T00:53:25.016Z,1.11
2023-02-06T00:56:10.218Z,1.01
2023-02-06T00:58:55.101Z,1.05
2023-02-06T01:01:40.101Z,0.97
2023-02-06T01:04:25.197Z,0.90
2023-02-06T01:07:10.477Z,0.80
2023-02-06T01:09:55.247Z,0.85
2023-02-06T01:12:41.450Z,0.92
2023-02-06T01:15:27.028Z,0.81
2023-02-06T01:18:12.415Z,0.73
2023-02-06T01:20:57.463Z,0.73
2023-02-06T01:23:42.997Z,0.66
2023-02-06T01:26:28.604Z,0.70
2023-02-06T01:29:13.399Z,0.67
2023-02-06T01:31:58.353Z,0.60
2023-02-06T01:34:42.920Z,0.63
2023-02-06T01:37:29.810Z,0.56
2023-02-06T01:40:16.674Z,0.56
2023-02-06T01:43:02.413Z,0.51
2023-02-06T01:45:47.688Z,0.57
2023-02-06T01:48:54.763Z,0.50
2023-02-06T01:51:40.223Z,0.57
2023-02-06T01:54:25.476Z,0.55
2023-02-06T01:57:12.096Z,0.70
2023-02-06T02:00:03.032Z,0.56
2023-02-06T02:02:49.704Z,0.62
2023-02-06T02:05:35.871Z,0.62
2023-02-06T02:08:28.424Z,0.59
2023-02-06T02:11:18.408Z,0.61
2023-02-06T02:14:07.891Z,0.60
2023-02-06T02:17:15.832Z,0.63
2023-02-06T02:20:27.365Z,0.65
2023-02-06T02:23:19.245Z,0.66
2023-02-06T02:26:24.496Z,0.77
2023-02-06T02:29:31.230Z,0.64
2023-02-06T02:32:53.162Z,0.62
2023-02-06T02:36:14.697Z,0.60
2023-02-06T02:39:17.562Z,0.61
2023-02-06T02:42:23.929Z,0.60
2023-02-06T02:45:47.236Z,0.61
2023-02-06T02:48:42.374Z,0.65
2023-02-06T02:51:27.367Z,0.66
2023-02-06T02:54:12.279Z,0.60
2023-02-06T02:57:06.314Z,0.69
2023-02-06T02:59:52.161Z,0.62
2023-02-06T03:02:38.903Z,0.58
2023-02-06T03:05:26.248Z,0.61
2023-02-06T03:08:25.526Z,0.57
2023-02-06T03:11:17.617Z,0.61
2023-02-06T03:14:09.886Z,0.55
2023-02-06T03:17:03.706Z,0.56
2023-02-06T03:19:53.992Z,0.63
2023-02-06T03:22:40.774Z,0.57
2023-02-06T03:25:33.393Z,0.53
2023-02-06T03:28:31.222Z,0.61
2023-02-06T03:31:25.140Z,0.69
2023-02-06T03:34:18.597Z,0.65
2023-02-06T03:37:04.116Z,0.60
2023-02-06T03:39:49.565Z,0.63
2023-02-06T03:42:40.616Z,0.57
2023-02-06T03:45:33.177Z,0.61
2023-02-06T03:48:27.384Z,0.61
2023-02-06T03:51:19.065Z,0.65
2023-02-06T03:54:06.273Z,0.61
2023-02-06T03:56:57.673Z,0.59
2023-02-06T03:59:42.498Z,0.45
2023-02-06T04:02:28.688Z,0.42
2023-02-06T04:05:15.741Z,0.42
2023-02-06T04:08:00.934Z,0.28
2023-02-06T04:10:45.891Z,0.30
2023-02-06T04:13:31.066Z,0.22
2023-02-06T04:16:16.454Z,0.27
2023-02-06T04:19:01.214Z,0.28
2023-02-06T04:21:46.212Z,0.32
2023-02-06T04:24:31.412Z,0.11
2023-02-06T04:27:18.423Z,0.08
2023-02-06T04:30:04.894Z,0.12
2023-02-06T04:32:49.993Z,0.16
2023-02-06T04:35:35.452Z,0.03
2023-02-06T04:38:21.564Z,0.09
2023-02-06T04:41:07.117Z,0.13
2023-02-06T04:43:52.537Z,0.04
2023-02-06T04:46:37.259Z,0.02
2023-02-06T04:49:22.577Z,0.04
2023-02-06T04:52:07.615Z,0.04
2023-02-06T04:54:52.366Z,-0.10
2023-02-06T04:57:38.781Z,-0.05
2023-02-06T05:00:23.537Z,0.02
2023-02-06T05:03:08.925Z,-0.14
2023-02-06T05:05:53.965Z,-0.13
2023-02-06T05:08:39.729Z,0.03
2023-02-06T05:11:24.835Z,0.01
2023-02-06T05:14:09.612Z,0.04
2023-02-06T05:16:54.501Z,0.02
2023-02-06T05:19:40.631Z,0.01
2023-02-06T05:22:26.750Z,0.05
2023-02-06T05:25:11.808Z,0.18
2023-02-06T05:27:57.768Z,0.09
2023-02-06T05:30:43.056Z,0.27
2023-02-06T05:33:28.938Z,0.31
2023-02-06T05:36:14.425Z,0.48
2023-02-06T05:38:59.622Z,0.39
2023-02-06T05:41:44.633Z,0.24
2023-02-06T05:44:30.115Z,0.33
2023-02-06T05:47:15.040Z,0.31
2023-02-06T05:50:00.407Z,0.38
2023-02-06T05:52:45.554Z,0.30
2023-02-06T05:55:30.384Z,0.23
2023-02-06T05:58:16.529Z,0.28
2023-02-06T06:01:01.847Z,0.26
2023-02-06T06:03:46.985Z,0.35
2023-02-06T06:06:31.836Z,0.33
2023-02-06T06:09:17.035Z,0.23
2023-02-06T06:12:02.146Z,0.46
2023-02-06T06:14:47.524Z,0.22
2023-02-06T06:17:32.799Z,0.26
2023-02-06T06:20:18.329Z,0.41
2023-02-06T06:23:03.525Z,0.27
2023-02-06T06:25:50.174Z,0.34
2023-02-06T06:28:38.978Z,0.24
2023-02-06T06:31:24.177Z,0.12
2023-02-06T06:34:09.797Z,0.08
2023-02-06T06:36:55.012Z,0.05
2023-02-06T06:39:39.999Z,-0.02
2023-02-06T06:42:24.944Z,0.07
2023-02-06T06:45:10.341Z,0.03
2023-02-06T06:47:55.127Z,0.07
2023-02-06T06:50:40.045Z,-0.04
2023-02-06T06:53:24.930Z,-0.03
2023-02-06T06:56:13.625Z,0.01
2023-02-06T06:58:58.446Z,-0.02
2023-02-06T07:01:43.248Z,0.02
2023-02-06T07:04:33.177Z,0.39
2023-02-06T07:07:17.995Z,0.71
2023-02-06T07:10:02.915Z,0.49
2023-02-06T07:12:53.440Z,0.49
2023-02-06T07:15:38.466Z,0.60
2023-02-06T07:18:23.758Z,0.52
2023-02-06T07:21:10.301Z,0.45
2023-02-06T07:23:55.424Z,0.61
2023-02-06T07:26:41.929Z,0.59
2023-02-06T07:29:27.402Z,0.54
2023-02-06T07:32:12.140Z,0.53
2023-02-06T07:34:57.306Z,0.34
2023-02-06T07:37:42.407Z,0.41
2023-02-06T07:40:36.430Z,0.37
2023-02-06T07:43:28.232Z,0.44
2023-02-06T07:46:13.320Z,0.26
2023-02-06T07:48:58.134Z,0.36
2023-02-06T07:51:44.665Z,0.38
2023-02-06T07:54:29.760Z,0.55
2023-02-06T07:57:15.342Z,0.55
2023-02-06T08:00:00.604Z,0.33
2023-02-06T08:02:45.624Z,0.40
2023-02-06T08:05:32.172Z,0.34
2023-02-06T08:08:17.032Z,0.51
2023-02-06T08:11:05.574Z,0.40
2023-02-06T08:13:51.225Z,0.57
2023-02-06T08:16:36.359Z,0.41
2023-02-06T08:19:21.313Z,0.48
2023-02-06T08:22:06.328Z,0.61
2023-02-06T08:24:51.174Z,0.60
2023-02-06T08:27:36.061Z,0.60
2023-02-06T08:30:22.331Z,0.65
2023-02-06T08:33:07.092Z,0.72
2023-02-06T08:35:52.315Z,0.75
2023-02-06T08:38:38.219Z,0.61
2023-02-06T08:41:26.176Z,0.51
2023-02-06T08:44:16.251Z,0.52
2023-02-06T08:47:09.654Z,0.65
2023-02-06T08:49:55.400Z,0.69
2023-02-06T08:52:41.005Z,0.44
2023-02-06T08:55:26.975Z,0.62
2023-02-06T08:58:12.087Z,0.52
2023-02-06T09:00:57.187Z,0.71
2023-02-06T09:03:43.274Z,0.70
2023-02-06T09:06:29.003Z,0.71
2023-02-06T09:09:15.288Z,0.60
2023-02-06T09:12:03.722Z,0.58
2023-02-06T09:14:48.770Z,0.55
2023-02-06T09:17:34.162Z,0.62
2023-02-06T09:20:19.373Z,0.61
2023-02-06T09:23:04.857Z,0.72
2023-02-06T09:25:49.904Z,0.66
2023-02-06T09:28:35.355Z,0.82
2023-02-06T09:31:20.871Z,0.84
2023-02-06T09:34:06.605Z,0.98
2023-02-06T09:36:54.274Z,1.07
2023-02-06T09:39:39.435Z,1.05
2023-02-06T09:42:34.754Z,1.13
2023-02-06T09:45:27.131Z,0.96
2023-02-06T09:48:23.248Z,1.03
2023-02-06T09:51:40.434Z,0.96
2023-02-06T09:54:50.329Z,1.00
2023-02-06T09:57:47.517Z,0.96
2023-02-06T10:01:13.978Z,1.05
2023-02-06T10:04:26.517Z,1.10
2023-02-06T10:07:18.746Z,1.07
2023-02-06T10:10:17.547Z,1.11
2023-02-06T10:13:30.358Z,1.11
2023-02-06T10:16:21.400Z,1.17
2023-02-06T10:19:18.956Z,1.13
2023-02-06T10:22:18.129Z,1.21
2023-02-06T10:25:14.720Z,1.22
2023-02-06T10:28:08.166Z,1.41
2023-02-06T10:31:08.357Z,1.39
2023-02-06T10:34:41.934Z,1.53
2023-02-06T10:38:04.907Z,1.55
2023-02-06T10:40:58.880Z,1.59
2023-02-06T10:43:50.555Z,1.75
2023-02-06T10:46:44.636Z,1.78
2023-02-06T10:49:47.650Z,1.88
2023-02-06T10:52:35.362Z,1.87
2023-02-06T10:55:23.635Z,1.99
2023-02-06T10:58:32.838Z,1.96
2023-02-06T11:01:26.174Z,2.15
2023-02-06T11:04:20.154Z,2.23
2023-02-06T11:07:25.242Z,2.21
2023-02-06T11:10:16.275Z,2.17
2023-02-06T11:13:14.920Z,2.31
2023-02-06T11:16:08.283Z,2.47
2023-02-06T11:18:56.216Z,2.75
2023-02-06T11:21:41.795Z,2.86
2023-02-06T11:24:26.962Z,2.72
2023-02-06T11:27:17.133Z,2.83
2023-02-06T11:30:08.226Z,2.86
2023-02-06T11:33:19.820Z,2.76
2023-02-06T11:36:05.978Z,2.93
2023-02-06T11:39:06.796Z,2.66
2023-02-06T11:42:01.643Z,2.59
2023-02-06T11:44:51.972Z,2.59
2023-02-06T11:47:38.216Z,2.61
2023-02-06T11:50:30.210Z,2.63
2023-02-06T11:53:17.985Z,2.67
2023-02-06T11:56:18.195Z,2.63
2023-02-06T11:59:17.535Z,2.64
2023-02-06T12:02:23.584Z,2.63
2023-02-06T12:05:15.166Z,2.73
2023-02-06T12:08:11.097Z,2.75
2023-02-06T12:11:05.070Z,2.83
2023-02-06T12:13:55.823Z,2.89
2023-02-06T12:16:46.480Z,2.89
2023-02-06T12:19:41.422Z,2.88
2023-02-06T12:22:27.183Z,2.74
2023-02-06T12:25:27.376Z,2.72
2023-02-06T12:28:40.786Z,2.82
2023-02-06T12:31:32.328Z,2.89
2023-02-06T12:34:23.134Z,2.93
2023-02-06T12:37:36.187Z,2.90
2023-02-06T12:40:21.500Z,2.95
2023-02-06T12:43:11.410Z,3.01
2023-02-06T12:46:03.407Z,2.89
2023-02-06T12:49:27.063Z,2.92
2023-02-06T12:52:31.064Z,2.99
2023-02-06T12:55:18.668Z,2.97
2023-02-06T12:58:04.744Z,2.98
2023-02-06T13:01:17.416Z,2.89
2023-02-06T13:04:24.246Z,3.01
2023-02-06T13:07:20.567Z,3.09
2023-02-06T13:10:07.157Z,3.01
2023-02-06T13:12:58.650Z,2.97
2023-02-06T13:15:55.023Z,2.87
2023-02-06T13:18:44.846Z,2.78
2023-02-06T13:21:32.871Z,2.84
2023-02-06T13:24:19.308Z,2.78
2023-02-06T13:27:17.043Z,2.80
2023-02-06T13:30:24.051Z,2.90
2023-02-06T13:33:24.581Z,3.06
2023-02-06T13:36:42.641Z,3.07
2023-02-06T13:39:31.503Z,3.23
2023-02-06T13:42:41.224Z,3.25
2023-02-06T13:45:29.244Z,3.25
2023-02-06T13:48:50.706Z,3.16
2023-02-06T13:51:50.341Z,3.14
2023-02-06T13:54:50.508Z,3.10
2023-02-06T13:57:50.369Z,3.09
2023-02-06T14:00:40.733Z,2.92
2023-02-06T14:03:29.564Z,3.03
2023-02-06T14:06:29.283Z,3.08
2023-02-06T14:09:46.907Z,3.15
2023-02-06T14:12:51.005Z,3.08
2023-02-06T14:15:51.896Z,3.03
2023-02-06T14:18:50.797Z,2.93
2023-02-06T14:22:07.848Z,2.82
2023-02-06T14:25:09.546Z,2.78
2023-02-06T14:28:35.269Z,2.68
2023-02-06T14:31:38.645Z,2.68
2023-02-06T14:34:46.737Z,2.57
2023-02-06T14:37:50.364Z,2.60
2023-02-06T14:40:42.420Z,2.72
2023-02-06T14:43:30.205Z,2.70
2023-02-06T14:46:20.152Z,2.58
2023-02-06T14:49:05.834Z,2.66
2023-02-06T14:51:52.316Z,2.65
2023-02-06T14:54:38.426Z,2.72
2023-02-06T14:57:26.489Z,2.73
2023-02-06T15:00:19.183Z,2.69
2023-02-06T15:03:15.938Z,2.62
2023-02-06T15:06:05.075Z,2.66
2023-02-06T15:08:51.623Z,2.66
2023-02-06T15:11:37.109Z,2.63
2023-02-06T15:14:32.284Z,2.59
2023-02-06T15:17:22.722Z,2.64
2023-02-06T15:20:21.673Z,2.54
2023-02-06T15:23:39.836Z,2.41
2023-02-06T15:26:35.441Z,2.50
2023-02-06T15:29:29.266Z,2.42
2023-02-06T15:32:25.531Z,2.36
2023-02-06T15:35:23.515Z,2.35
2023-02-06T15:38:16.426Z,2.42
2023-02-06T15:41:08.105Z,2.41
2023-02-06T15:43:59.779Z,2.45
2023-02-06T15:46:49.274Z,2.36
2023-02-06T15:49:40.084Z,2.36
2023-02-06T15:52:33.874Z,2.26
2023-02-06T15:55:29.030Z,2.09
2023-02-06T15:58:15.222Z,2.15
2023-02-06T16:01:02.899Z,2.03
2023-02-06T16:03:55.496Z,1.92
2023-02-06T16:06:41.254Z,1.89
2023-02-06T16:09:27.154Z,1.82
2023-02-06T16:12:16.285Z,1.89
2023-02-06T16:15:05.056Z,1.77
2023-02-06T16:17:50.740Z,1.89
2023-02-06T16:20:42.659Z,2.05
2023-02-06T16:23:29.831Z,2.00
2023-02-06T16:26:25.560Z,2.00
2023-02-06T16:29:10.581Z,2.05
2023-02-06T16:32:13.144Z,1.96
2023-02-06T16:35:01.182Z,2.05
2023-02-06T16:37:47.618Z,2.09
2023-02-06T16:40:32.511Z,2.09
2023-02-06T16:43:17.675Z,2.07
2023-02-06T16:46:02.974Z,2.06
2023-02-06T16:48:48.494Z,1.99
2023-02-06T16:51:33.410Z,2.11
2023-02-06T16:54:24.756Z,2.09
2023-02-06T16:57:20.287Z,2.12
2023-02-06T17:00:09.886Z,1.99
2023-02-06T17:02:55.684Z,2.04
2023-02-06T17:05:41.693Z,2.07
2023-02-06T17:08:26.973Z,2.01
2023-02-06T17:11:13.580Z,2.08
2023-02-06T17:14:00.349Z,1.97
2023-02-06T17:16:45.389Z,2.03
2023-02-06T17:19:30.630Z,1.91
2023-02-06T17:22:17.216Z,1.89
2023-02-06T17:25:02.309Z,1.71
2023-02-06T17:27:47.816Z,1.64
2023-02-06T17:30:34.321Z,1.50
2023-02-06T17:33:19.256Z,1.73
2023-02-06T17:36:07.839Z,1.64
2023-02-06T17:38:52.676Z,1.30
2023-02-06T17:41:39.261Z,1.14
2023-02-06T17:44:24.286Z,1.25
2023-02-06T17:47:11.440Z,1.38
2023-02-06T17:49:57.791Z,1.04
2023-02-06T17:52:43.453Z,1.12
2023-02-06T17:55:28.625Z,1.38
2023-02-06T17:58:13.738Z,1.45
2023-02-06T18:01:03.023Z,1.53
2023-02-06T18:03:48.153Z,1.41
2023-02-06T18:06:36.686Z,1.57
2023-02-06T18:09:24.163Z,1.67
2023-02-06T18:12:10.783Z,1.68
2023-02-06T18:14:58.990Z,1.56
2023-02-06T18:17:44.494Z,1.69
2023-02-06T18:20:30.755Z,1.41
2023-02-06T18:23:19.573Z,1.24
2023-02-06T18:26:08.493Z,1.39
2023-02-06T18:28:53.768Z,1.54
2023-02-06T18:31:39.320Z,1.53
2023-02-06T18:34:24.720Z,1.43
2023-02-06T18:37:10.025Z,1.59
2023-02-06T18:39:56.976Z,1.50
2023-02-06T18:42:54.828Z,1.49
2023-02-06T18:45:40.735Z,1.50
2023-02-06T18:48:26.617Z,1.33
2023-02-06T18:51:11.486Z,1.48
2023-02-06T18:54:00.727Z,1.46
2023-02-06T18:56:49.793Z,1.52
2023-02-06T18:59:35.689Z,1.62
2023-02-06T19:02:20.896Z,1.64
2023-02-06T19:05:06.090Z,1.54
2023-02-06T19:07:52.688Z,1.43
2023-02-06T19:10:41.148Z,1.42
2023-02-06T19:13:26.493Z,1.51
2023-02-06T19:16:14.796Z,1.19
2023-02-06T19:19:03.333Z,1.26
2023-02-06T19:21:48.714Z,1.43
2023-02-06T19:24:34.118Z,0.70
2023-02-06T19:27:21.304Z,0.27
2023-02-06T19:30:10.199Z,0.15
2023-02-06T19:32:55.200Z,0.80
2023-02-06T19:35:40.948Z,0.88
2023-02-06T19:38:26.122Z,0.74
2023-02-06T19:41:16.281Z,0.84
2023-02-06T19:44:05.884Z,0.77
2023-02-06T19:46:50.879Z,0.06
2023-02-06T19:49:36.588Z,-0.19
2023-02-06T19:52:21.880Z,-0.57
2023-02-06T19:55:07.445Z,-0.35
2023-02-06T19:57:53.374Z,-0.30
2023-02-06T20:00:41.072Z,-0.19
2023-02-06T20:03:25.882Z,-0.28
2023-02-06T20:06:14.649Z,0.31
2023-02-06T20:09:00.901Z,0.35
2023-02-06T20:11:46.701Z,0.46
2023-02-06T20:14:35.459Z,1.14
2023-02-06T20:17:20.795Z,1.22
2023-02-06T20:20:08.099Z,1.23
2023-02-06T20:22:55.365Z,1.22
2023-02-06T20:25:45.016Z,1.25
2023-02-06T20:28:30.182Z,0.93
2023-02-06T20:31:16.599Z,0.79
2023-02-06T20:34:03.107Z,0.07
2023-02-06T20:36:48.271Z,-0.19
2023-02-06T20:39:34.507Z,0.18
2023-02-06T20:42:23.326Z,0.74
2023-02-06T20:45:08.381Z,0.92
2023-02-06T20:47:53.536Z,1.11
2023-02-06T20:50:39.550Z,0.96
2023-02-06T20:53:25.080Z,0.76
2023-02-06T20:56:16.295Z,1.10
2023-02-06T20:59:02.219Z,1.04
2023-02-06T21:01:49.036Z,0.84
2023-02-06T21:04:34.237Z,0.94
2023-02-06T21:07:21.296Z,0.93
2023-02-06T21:10:08.383Z,0.74
2023-02-06T21:12:54.409Z,0.97
2023-02-06T21:15:42.325Z,0.95
2023-02-06T21:18:31.162Z,0.99
2023-02-06T21:21:17.217Z,1.04
2023-02-06T21:24:04.828Z,1.10
2023-02-06T21:26:50.613Z,0.92
2023-02-06T21:29:41.137Z,0.86
2023-02-06T21:32:26.087Z,0.84
2023-02-06T21:35:11.117Z,0.90
2023-02-06T21:37:57.170Z,0.90
2023-02-06T21:40:43.390Z,1.01
2023-02-06T21:43:28.325Z,0.99
2023-02-06T21:46:13.860Z,0.95
2023-02-06T21:48:59.290Z,0.62
2023-02-06T21:51:45.369Z,0.93
2023-02-06T21:54:33.125Z,0.59
2023-02-06T21:57:18.429Z,0.89
2023-02-06T22:00:04.739Z,0.90
2023-02-06T22:02:49.652Z,0.77
2023-02-06T22:05:36.890Z,0.79
2023-02-06T22:08:21.935Z,0.52
2023-02-06T22:11:16.029Z,0.19
2023-02-06T22:14:04.090Z,0.30
2023-02-06T22:16:48.884Z,0.17
2023-02-06T22:19:35.486Z,0.25
2023-02-06T22:22:20.679Z,0.58
2023-02-06T22:25:08.948Z,-0.06
2023-02-06T22:27:54.033Z,-0.54
2023-02-06T22:30:40.842Z,-0.61
2023-02-06T22:33:27.194Z,-0.77
2023-02-06T22:36:22.309Z,-1.05
2023-02-06T22:39:09.887Z,-1.01
2023-02-06T22:41:55.188Z,-0.16
2023-02-06T22:44:39.947Z,0.22
2023-02-06T22:47:24.932Z,0.60
2023-02-06T22:50:10.735Z,0.71
2023-02-06T22:53:14.232Z,0.52
2023-02-06T22:56:20.513Z,0.48
2023-02-06T22:59:21.914Z,0.42
2023-02-06T23:02:06.748Z,0.07
2023-02-06T23:04:52.152Z,0.52
2023-02-06T23:07:36.931Z,0.67
2023-02-06T23:10:22.202Z,0.56
2023-02-06T23:13:07.148Z,0.25
2023-02-06T23:15:59.177Z,0.53
2023-02-06T23:18:43.947Z,0.75
2023-02-06T23:21:28.832Z,0.70
2023-02-06T23:24:15.015Z,0.67
2023-02-06T23:27:00.577Z,0.53
2023-02-06T23:29:45.562Z,0.31
2023-02-06T23:32:30.660Z,-0.03
2023-02-06T23:35:16.012Z,0.28
2023-02-06T23:38:01.190Z,0.58
2023-02-06T23:40:46.856Z,0.29
2023-02-06T23:43:31.879Z,0.18
2023-02-06T23:46:18.240Z,0.46
2023-02-06T23:49:03.801Z,0.39
2023-02-06T23:51:48.927Z,-0.18
2023-02-06T23:54:33.786Z,-0.13
2023-02-06T23:57:18.916Z,0.08
